Aviation Digital Data Service (ADDS)

Output produced by METARs form (2127 UTC 16 February 2019)
found at http://www.aviationweather.gov/metar/data/
 
Forecast for: ZGNN (NANNING/WUXU , CN)
Text: TAF ZGNN 161506Z 1618/1718 07004MPS 4000 -RA BR FEW004 SCT007 OVC026 TX14/1707Z TN10/1622Z
Forecast period: 1800 UTC 16 February 2019 to 1800 UTC 17 February 2019
Forecast type: FROM: standard forecast or significant change
Winds: from the ENE (70 degrees) at 9 MPH (8 knots; 4.1 m/s)
Visibility: 2.49 miles (4.01 km)
Ceiling: 2600 feet AGL
Clouds: few clouds at 400 feet AGL
scattered clouds at 700 feet AGL
overcast cloud deck at 2600 feet AGL
Weather: -RA BR  (light rain, mist)
Text: TEMPO 1618/1624 2100
Forecast period: 1800 UTC 16 February 2019 to 0000 UTC 17 February 2019
Forecast type: TEMPORARY: The following changes expected for less than half the time period
Visibility: 1.30 miles (2.09 km)
Ceiling: unknown
Clouds: missing
Weather: no significant weather forecast for this period